Time;durP1;ratioP1;P1;durP2;ratioP2;P2;SDS_P1;SDS_P2;PMS_P1;PMS_P2;Temp;Humidity;BMP_temperature;BMP_pressure;BME280_temperature;BME280_humidity;BME280_pressure;Samples;Min_cycle;Max_cycle;Signal;HPM_P1;HPM_P2
2021/06/18 00:02:19;;;;;;;1999.90;999.90;;;25.00;99.90;;;;;;6328607;22;20730;-81
2021/06/18 00:04:46;;;;;;;1999.90;999.90;;;25.00;99.90;;;;;;6328091;22;20430;-82
2021/06/18 00:07:13;;;;;;;1999.90;999.90;;;24.90;99.90;;;;;;6325854;22;20990;-82
2021/06/18 00:09:40;;;;;;;1999.90;999.90;;;24.90;99.90;;;;;;6324949;22;20441;-82
2021/06/18 00:12:08;;;;;;;1999.90;999.90;;;24.80;99.90;;;;;;6325161;22;20508;-81
2021/06/18 00:14:35;;;;;;;1999.90;999.90;;;24.70;99.90;;;;;;6324884;22;20445;-82
2021/06/18 00:17:02;;;;;;;1999.90;999.90;;;24.70;99.90;;;;;;6325723;22;20466;-82
2021/06/18 00:19:31;;;;;;;1999.90;999.90;;;24.70;99.90;;;;;;6325452;22;20433;-82
2021/06/18 00:21:58;;;;;;;1999.90;999.90;;;24.60;99.90;;;;;;6329859;22;20490;-81
2021/06/18 00:24:24;;;;;;;1999.90;999.90;;;24.60;99.90;;;;;;6325482;22;20498;-81
2021/06/18 00:26:51;;;;;;;1999.90;999.90;;;24.60;99.90;;;;;;6325884;22;20461;-81
2021/06/18 00:29:18;;;;;;;1999.90;999.90;;;24.60;99.90;;;;;;6325739;22;20441;-81
2021/06/18 00:31:45;;;;;;;1999.90;999.90;;;24.50;99.90;;;;;;6325537;22;20417;-82
2021/06/18 00:34:12;;;;;;;1999.90;999.90;;;24.50;99.90;;;;;;6325899;22;20434;-81
2021/06/18 00:36:40;;;;;;;1999.90;999.90;;;24.40;99.90;;;;;;6326514;22;20437;-81
2021/06/18 00:39:07;;;;;;;1999.90;999.90;;;24.40;99.90;;;;;;6325786;22;20433;-81
2021/06/18 00:41:34;;;;;;;1999.90;999.90;;;24.40;99.90;;;;;;6326521;22;20943;-81
2021/06/18 00:44:01;;;;;;;1999.90;999.90;;;24.40;99.90;;;;;;6325529;22;20473;-81
2021/06/18 00:46:28;;;;;;;1999.90;999.90;;;24.30;99.90;;;;;;6326451;22;20457;-81
2021/06/18 00:48:56;;;;;;;1999.90;999.90;;;24.30;99.90;;;;;;6327974;22;20488;-81
2021/06/18 00:51:24;;;;;;;1999.90;999.90;;;24.30;99.90;;;;;;6327824;22;20414;-81
2021/06/18 00:53:53;;;;;;;1813.90;872.97;;;24.30;99.90;;;;;;6327191;22;20405;-81
2021/06/18 00:56:20;;;;;;;1999.90;999.90;;;24.20;99.90;;;;;;6326387;22;20849;-81
2021/06/18 00:58:47;;;;;;;1774.10;999.90;;;24.20;99.90;;;;;;6327962;22;20444;-81
2021/06/18 01:01:13;;;;;;;1821.73;999.90;;;24.20;99.90;;;;;;6326901;22;20490;-81
2021/06/18 01:03:40;;;;;;;1652.33;999.90;;;24.10;99.90;;;;;;6328062;22;20434;-81
2021/06/18 01:06:09;;;;;;;1530.50;999.90;;;24.10;99.90;;;;;;6328247;22;20474;-81
2021/06/18 01:08:44;;;;;;;1312.53;999.90;;;24.10;99.90;;;;;;6326587;22;20429;-81
2021/06/18 01:11:23;;;;;;;1142.33;999.90;;;24.00;99.90;;;;;;6327484;22;20448;-81
2021/06/18 01:13:58;;;;;;;1328.40;999.90;;;24.00;99.90;;;;;;6326623;22;20454;-81
2021/06/18 01:16:34;;;;;;;1149.83;999.90;;;24.00;99.90;;;;;;6327898;22;20509;-81
2021/06/18 01:19:06;;;;;;;1126.07;999.90;;;23.90;99.90;;;;;;6327670;22;20394;-82
2021/06/18 01:21:35;;;;;;;1022.07;938.97;;;23.80;99.90;;;;;;6327313;22;20509;-82
2021/06/18 01:24:22;;;;;;;868.53;807.73;;;23.80;99.90;;;;;;6326849;22;20453;-81
2021/06/18 01:27:29;;;;;;;845.27;793.07;;;23.80;99.90;;;;;;6326300;22;20393;-80
2021/06/18 01:30:02;;;;;;;922.43;860.40;;;23.80;99.90;;;;;;6307635;22;20481;-81
2021/06/18 01:32:33;;;;;;;874.60;819.07;;;23.80;99.90;;;;;;6323134;22;20496;-81
2021/06/18 01:35:01;;;;;;;867.13;808.30;;;23.80;99.90;;;;;;6325525;22;20382;-81
2021/06/18 01:37:31;;;;;;;557.33;527.70;;;23.70;99.90;;;;;;6323499;22;20484;-81
2021/06/18 01:40:02;;;;;;;711.13;668.43;;;23.80;99.90;;;;;;6323879;22;20426;-82
2021/06/18 01:42:32;;;;;;;760.97;714.57;;;23.70;99.90;;;;;;6323706;22;20753;-81
2021/06/18 01:45:02;;;;;;;501.53;476.13;;;23.70;99.90;;;;;;6324462;22;20890;-81
2021/06/18 01:47:30;;;;;;;767.00;718.90;;;23.70;99.90;;;;;;6324943;22;20927;-82
2021/06/18 01:49:58;;;;;;;348.13;329.70;;;23.60;99.90;;;;;;6324299;22;20493;-81
2021/06/18 01:52:26;;;;;;;210.97;199.70;;;23.60;99.90;;;;;;6322938;22;20513;-81
2021/06/18 01:54:54;;;;;;;266.20;252.73;;;23.60;99.90;;;;;;6326231;22;20433;-81
2021/06/18 01:57:24;;;;;;;689.30;643.80;;;23.60;99.90;;;;;;6323261;22;20505;-81
2021/06/18 01:59:53;;;;;;;1105.60;971.03;;;23.50;99.90;;;;;;6320657;22;20553;-81
2021/06/18 02:02:24;;;;;;;1075.53;985.27;;;23.50;99.90;;;;;;6317897;22;20780;-81
2021/06/18 02:04:55;;;;;;;976.37;901.50;;;23.50;99.90;;;;;;6324306;22;20425;-82
2021/06/18 02:07:24;;;;;;;924.00;859.50;;;23.50;99.90;;;;;;6326240;22;20375;-81
2021/06/18 02:09:51;;;;;;;966.67;896.43;;;23.50;99.90;;;;;;6332254;22;20414;-81
2021/06/18 02:12:21;;;;;;;996.00;925.13;;;23.50;99.90;;;;;;6323262;22;20497;-81
2021/06/18 02:14:49;;;;;;;952.63;881.07;;;23.40;99.90;;;;;;6323666;22;20414;-81
2021/06/18 02:17:17;;;;;;;1048.70;967.23;;;23.40;99.90;;;;;;6321824;22;20990;-81
2021/06/18 02:19:48;;;;;;;1091.67;991.73;;;23.40;99.90;;;;;;6321203;22;20470;-81
2021/06/18 02:22:17;;;;;;;996.23;917.73;;;23.40;99.90;;;;;;6319603;22;20425;-81
2021/06/18 02:24:44;;;;;;;986.93;917.10;;;23.40;99.90;;;;;;6319286;22;20493;-81
2021/06/18 02:27:14;;;;;;;1073.90;978.83;;;23.40;99.90;;;;;;6320415;22;20433;-81
2021/06/18 02:29:41;;;;;;;1042.57;964.77;;;23.40;99.90;;;;;;6321318;22;20412;-81
2021/06/18 02:32:11;;;;;;;753.40;704.63;;;23.40;99.90;;;;;;6324201;22;20422;-81
2021/06/18 02:34:38;;;;;;;804.07;750.27;;;23.40;99.90;;;;;;6320196;22;20437;-81
2021/06/18 02:37:07;;;;;;;763.47;714.80;;;23.40;99.90;;;;;;6321086;22;20449;-81
2021/06/18 02:39:34;;;;;;;798.17;747.77;;;23.30;99.90;;;;;;6324075;22;20485;-82
2021/06/18 02:42:01;;;;;;;1056.30;963.23;;;23.30;99.90;;;;;;6322496;22;20493;-81
2021/06/18 02:44:29;;;;;;;934.07;872.40;;;23.30;99.90;;;;;;6325328;22;20417;-82
2021/06/18 02:47:02;;;;;;;799.57;751.00;;;23.20;99.90;;;;;;6324498;22;20428;-81
2021/06/18 02:49:38;;;;;;;778.30;732.63;;;23.30;99.90;;;;;;6326077;22;20410;-82
2021/06/18 02:52:10;;;;;;;656.93;620.23;;;23.30;99.90;;;;;;6323391;22;20486;-81
2021/06/18 02:54:43;;;;;;;627.60;592.63;;;23.30;99.90;;;;;;6325396;22;20398;-81
2021/06/18 02:57:18;;;;;;;773.90;727.40;;;23.20;99.90;;;;;;6322642;22;20426;-81
2021/06/18 02:59:52;;;;;;;608.97;575.47;;;23.20;99.90;;;;;;6321731;22;20386;-81
2021/06/18 03:02:23;;;;;;;669.13;632.07;;;23.20;99.90;;;;;;6322491;22;20446;-81
2021/06/18 03:04:54;;;;;;;597.13;565.03;;;23.20;99.90;;;;;;6320881;22;20421;-81
2021/06/18 03:07:27;;;;;;;647.20;610.43;;;23.20;99.90;;;;;;6322597;22;20454;-81
2021/06/18 03:09:59;;;;;;;432.10;409.73;;;23.20;99.90;;;;;;6321891;22;20458;-82
2021/06/18 03:12:27;;;;;;;546.03;516.87;;;23.20;99.90;;;;;;6320732;22;20496;-82
2021/06/18 03:14:57;;;;;;;534.83;505.17;;;23.20;99.90;;;;;;6323134;22;20429;-82
2021/06/18 03:17:25;;;;;;;462.13;438.17;;;23.10;99.90;;;;;;6323690;22;20401;-81
2021/06/18 03:19:58;;;;;;;324.17;306.60;;;23.10;99.90;;;;;;6325716;22;20429;-82
2021/06/18 03:22:28;;;;;;;394.60;374.40;;;23.10;99.90;;;;;;6323326;22;20509;-82
2021/06/18 03:24:56;;;;;;;391.50;370.53;;;23.10;99.90;;;;;;6323579;22;20410;-82
2021/06/18 03:27:24;;;;;;;625.73;590.90;;;23.10;99.90;;;;;;6310419;22;20444;-81
2021/06/18 03:29:54;;;;;;;601.83;569.17;;;23.10;99.90;;;;;;6312415;22;20406;-80
2021/06/18 03:32:21;;;;;;;539.80;510.33;;;23.10;99.90;;;;;;6312782;22;20430;-80
2021/06/18 03:34:49;;;;;;;449.13;425.97;;;23.10;99.90;;;;;;6311083;22;20406;-81
2021/06/18 03:37:17;;;;;;;435.70;413.90;;;23.10;99.90;;;;;;6313871;22;20406;-80
2021/06/18 03:39:46;;;;;;;365.43;345.93;;;23.10;99.90;;;;;;6311171;22;20489;-80
2021/06/18 03:42:14;;;;;;;339.23;322.47;;;23.20;99.90;;;;;;6311596;22;20461;-80
2021/06/18 03:44:42;;;;;;;217.47;205.37;;;23.20;99.90;;;;;;6313281;22;20430;-81
2021/06/18 03:47:11;;;;;;;590.17;556.37;;;23.10;99.90;;;;;;6311298;22;20448;-79
2021/06/18 03:49:39;;;;;;;565.97;536.27;;;23.20;99.90;;;;;;6310475;22;20508;-80
2021/06/18 03:52:06;;;;;;;451.60;429.40;;;23.20;99.90;;;;;;6313599;22;20461;-83
2021/06/18 03:54:33;;;;;;;330.07;313.80;;;23.20;99.90;;;;;;6326931;22;20473;-82
2021/06/18 03:57:02;;;;;;;307.33;291.83;;;23.20;99.90;;;;;;6329354;22;20433;-82
2021/06/18 03:59:31;;;;;;;372.67;354.20;;;23.20;99.90;;;;;;6324656;22;20475;-82
2021/06/18 04:02:00;;;;;;;403.50;382.47;;;23.20;99.90;;;;;;6324304;22;20453;-82
2021/06/18 04:04:31;;;;;;;318.63;302.67;;;23.30;99.90;;;;;;6324795;22;20473;-82
2021/06/18 04:06:59;;;;;;;281.53;266.53;;;23.30;99.90;;;;;;6323678;22;20458;-82
2021/06/18 04:09:26;;;;;;;203.63;192.83;;;23.30;99.90;;;;;;6324444;22;20398;-82
2021/06/18 04:11:53;;;;;;;216.70;205.20;;;23.20;99.90;;;;;;6324893;22;20524;-82
2021/06/18 04:14:21;;;;;;;159.70;150.33;;;23.20;99.90;;;;;;6325601;22;20514;-82
2021/06/18 04:16:48;;;;;;;275.43;261.80;;;23.30;99.90;;;;;;6325427;22;20413;-82
2021/06/18 04:19:15;;;;;;;242.53;229.73;;;23.30;99.90;;;;;;6324404;22;20720;-83
2021/06/18 04:21:44;;;;;;;255.23;242.03;;;23.40;99.90;;;;;;6326231;22;20437;-83
2021/06/18 04:24:12;;;;;;;271.93;258.33;;;23.40;99.90;;;;;;6326476;22;20398;-82
2021/06/18 04:26:39;;;;;;;307.43;292.70;;;23.40;99.90;;;;;;6324996;22;20809;-81
2021/06/18 04:29:06;;;;;;;316.53;300.17;;;23.50;99.90;;;;;;6324613;22;20442;-81
2021/06/18 04:31:36;;;;;;;321.43;304.23;;;23.50;99.90;;;;;;6326452;22;20430;-80
2021/06/18 04:34:04;;;;;;;353.10;335.17;;;23.50;99.90;;;;;;6326063;22;20416;-80
2021/06/18 04:36:31;;;;;;;430.13;408.47;;;23.50;99.90;;;;;;6326728;22;20410;-80
2021/06/18 04:38:59;;;;;;;575.03;543.73;;;23.50;99.90;;;;;;6325457;22;20460;-80
2021/06/18 04:41:26;;;;;;;224.40;212.47;;;23.50;99.90;;;;;;6325468;22;20460;-80
2021/06/18 04:43:53;;;;;;;316.47;298.03;;;23.50;99.90;;;;;;6325659;22;20410;-80
2021/06/18 04:46:20;;;;;;;237.53;225.60;;;23.50;99.90;;;;;;6325861;22;20405;-81
2021/06/18 04:48:49;;;;;;;204.20;193.23;;;23.60;99.90;;;;;;6325364;22;20470;-81
2021/06/18 04:51:16;;;;;;;294.63;279.40;;;23.70;99.90;;;;;;6325930;22;20459;-81
2021/06/18 04:53:43;;;;;;;219.80;208.67;;;23.70;99.90;;;;;;6327472;22;20405;-81
2021/06/18 04:56:10;;;;;;;178.20;168.23;;;23.80;99.90;;;;;;6325843;22;20445;-80
2021/06/18 04:58:38;;;;;;;455.60;430.20;;;23.90;99.90;;;;;;6327871;22;20474;-80
2021/06/18 05:01:05;;;;;;;231.23;218.43;;;23.90;99.90;;;;;;6326851;22;20464;-81
2021/06/18 05:03:33;;;;;;;148.63;139.47;;;23.90;99.90;;;;;;6325831;22;20425;-80
2021/06/18 05:06:01;;;;;;;388.70;362.90;;;23.90;99.90;;;;;;6326005;22;20822;-81
2021/06/18 05:08:28;;;;;;;754.13;702.43;;;23.80;99.90;;;;;;6324736;22;20465;-80
2021/06/18 05:10:54;;;;;;;580.00;529.73;;;23.80;99.90;;;;;;6326805;22;20433;-80
2021/06/18 05:13:21;;;;;;;179.80;169.33;;;23.90;99.90;;;;;;6322585;22;20881;-81
2021/06/18 05:15:49;;;;;;;117.73;109.97;;;24.00;99.90;;;;;;6321026;22;20446;-81
2021/06/18 05:18:16;;;;;;;271.67;257.27;;;24.00;99.90;;;;;;6324784;22;20488;-80
2021/06/18 05:20:43;;;;;;;196.97;186.10;;;24.10;99.90;;;;;;6321187;22;20465;-81
2021/06/18 05:23:12;;;;;;;176.27;166.13;;;24.10;99.90;;;;;;6312285;22;20767;-81
2021/06/18 05:25:38;;;;;;;132.37;124.13;;;24.20;99.90;;;;;;6316307;22;20478;-81
2021/06/18 05:28:06;;;;;;;266.80;251.50;;;24.30;99.90;;;;;;6314488;22;20442;-80
2021/06/18 05:30:33;;;;;;;203.73;191.57;;;24.30;99.90;;;;;;6319407;22;20409;-81
2021/06/18 05:33:00;;;;;;;238.10;225.47;;;24.40;99.90;;;;;;6315815;22;20504;-80
2021/06/18 05:35:27;;;;;;;244.40;231.13;;;24.40;99.90;;;;;;6314398;22;20934;-81
2021/06/18 05:37:55;;;;;;;188.77;178.20;;;24.50;99.90;;;;;;6312739;22;20406;-81
2021/06/18 05:40:23;;;;;;;282.17;264.83;;;24.40;99.90;;;;;;6316433;22;20410;-81
2021/06/18 05:42:50;;;;;;;533.80;499.80;;;24.40;99.90;;;;;;6314017;22;20482;-81
2021/06/18 05:45:17;;;;;;;158.63;149.27;;;24.40;99.90;;;;;;6307080;22;20420;-81
2021/06/18 05:47:44;;;;;;;164.63;154.57;;;24.50;99.90;;;;;;6317665;22;20464;-81
2021/06/18 05:50:12;;;;;;;281.70;262.13;;;24.60;99.90;;;;;;6308127;22;20485;-80
2021/06/18 05:52:39;;;;;;;178.27;167.77;;;24.60;99.90;;;;;;6309706;22;20414;-81
2021/06/18 05:55:07;;;;;;;342.50;318.70;;;24.60;99.90;;;;;;6308271;22;20405;-80
2021/06/18 05:57:38;;;;;;;192.80;182.00;;;24.60;99.90;;;;;;6307937;22;20413;-81
2021/06/18 06:00:06;;;;;;;463.07;437.63;;;24.70;99.90;;;;;;6308878;22;20489;-81
2021/06/18 06:02:33;;;;;;;192.90;182.50;;;24.70;99.90;;;;;;6308227;22;20828;-81
2021/06/18 06:05:00;;;;;;;629.60;584.83;;;24.90;99.90;;;;;;6308677;22;20505;-80
2021/06/18 06:07:26;;;;;;;423.20;392.67;;;24.80;99.90;;;;;;6307013;22;20405;-80
2021/06/18 06:09:53;;;;;;;632.40;592.70;;;24.90;99.90;;;;;;6315847;22;20469;-81
2021/06/18 06:12:20;;;;;;;221.67;209.17;;;24.80;99.90;;;;;;6317247;22;20466;-81
2021/06/18 06:14:49;;;;;;;373.80;353.57;;;24.90;99.90;;;;;;6317501;22;20489;-81
2021/06/18 06:17:16;;;;;;;461.63;433.10;;;25.00;99.90;;;;;;6313423;22;20475;-81
2021/06/18 06:19:43;;;;;;;314.17;297.50;;;25.10;99.90;;;;;;6313752;22;20410;-81
2021/06/18 06:22:10;;;;;;;172.90;162.33;;;25.10;99.90;;;;;;6316489;22;20508;-81
2021/06/18 06:24:37;;;;;;;134.43;125.93;;;25.20;99.90;;;;;;6316070;22;20475;-81
2021/06/18 06:27:04;;;;;;;197.17;185.97;;;25.40;99.90;;;;;;6317934;22;20413;-82
2021/06/18 06:29:31;;;;;;;166.50;156.70;;;25.50;99.90;;;;;;6319985;22;20477;-81
2021/06/18 06:31:59;;;;;;;194.47;183.70;;;25.60;99.90;;;;;;6309786;22;20428;-81
2021/06/18 06:34:26;;;;;;;341.37;319.90;;;25.70;99.90;;;;;;6311862;22;20446;-80
2021/06/18 06:36:52;;;;;;;180.70;170.33;;;25.80;99.90;;;;;;6309382;22;20572;-81
2021/06/18 06:39:19;;;;;;;215.13;203.07;;;25.80;99.90;;;;;;6310607;22;20432;-80
2021/06/18 06:41:46;;;;;;;174.63;164.80;;;26.00;99.90;;;;;;6309656;22;20433;-81
2021/06/18 06:44:13;;;;;;;450.80;422.97;;;26.10;99.90;;;;;;6311264;22;20501;-81
2021/06/18 06:46:40;;;;;;;289.37;274.80;;;26.10;99.90;;;;;;6311345;22;20414;-80
2021/06/18 06:49:08;;;;;;;841.87;778.73;;;26.20;99.90;;;;;;6313180;22;20445;-81
2021/06/18 06:51:35;;;;;;;281.77;267.47;;;26.20;99.90;;;;;;6320399;22;20422;-82
2021/06/18 06:54:03;;;;;;;297.33;281.80;;;26.30;99.90;;;;;;6318632;22;20465;-81
2021/06/18 06:56:31;;;;;;;296.60;279.70;;;26.40;99.90;;;;;;6321423;22;20441;-81
2021/06/18 06:58:58;;;;;;;538.97;509.83;;;26.50;99.90;;;;;;6321938;22;20446;-81
2021/06/18 07:01:25;;;;;;;416.77;395.27;;;26.50;99.90;;;;;;6320439;22;20460;-80
2021/06/18 07:03:52;;;;;;;355.37;336.33;;;26.60;99.90;;;;;;6315143;22;20410;-80
2021/06/18 07:06:20;;;;;;;289.83;275.37;;;26.70;99.90;;;;;;6316840;22;20493;-81
2021/06/18 07:08:47;;;;;;;249.50;237.03;;;26.70;99.90;;;;;;6316102;22;20449;-81
2021/06/18 07:11:14;;;;;;;340.93;323.43;;;26.80;99.90;;;;;;6317926;22;20457;-80
2021/06/18 07:13:41;;;;;;;316.03;298.70;;;26.80;99.90;;;;;;6316316;22;20402;-81
2021/06/18 07:16:08;;;;;;;231.77;218.87;;;26.90;99.90;;;;;;6319252;22;20438;-81
2021/06/18 07:18:36;;;;;;;516.27;487.13;;;27.10;99.90;;;;;;6290685;22;20406;-81
2021/06/18 07:21:02;;;;;;;223.43;211.80;;;27.10;99.90;;;;;;6322481;22;20459;-81
2021/06/18 07:23:31;;;;;;;341.70;322.63;;;27.30;99.90;;;;;;6324850;22;20493;-81
2021/06/18 07:25:58;;;;;;;450.50;420.60;;;27.40;99.90;;;;;;6328752;22;20406;-80
2021/06/18 07:28:25;;;;;;;339.80;321.43;;;27.40;99.90;;;;;;6323884;22;20509;-81
2021/06/18 07:30:52;;;;;;;138.57;129.90;;;27.40;99.90;;;;;;6325124;22;20402;-81
2021/06/18 07:33:18;;;;;;;286.83;271.03;;;27.40;99.90;;;;;;6309128;22;20416;-81
2021/06/18 07:35:45;;;;;;;362.43;343.37;;;27.50;99.90;;;;;;6306527;22;20400;-81
2021/06/18 07:38:12;;;;;;;534.23;504.37;;;27.50;99.90;;;;;;6310306;22;20468;-80
2021/06/18 07:40:40;;;;;;;304.57;286.73;;;27.60;99.90;;;;;;6306799;22;20485;-81
2021/06/18 07:43:07;;;;;;;603.97;568.27;;;27.70;99.90;;;;;;6306682;22;20925;-81
2021/06/18 07:45:34;;;;;;;301.50;286.27;;;27.70;99.90;;;;;;6307705;22;20441;-81
2021/06/18 07:48:02;;;;;;;348.77;330.30;;;27.80;99.90;;;;;;6307185;22;20481;-82
2021/06/18 07:50:29;;;;;;;826.93;748.80;;;27.90;99.90;;;;;;6307577;22;20409;-81
2021/06/18 07:52:56;;;;;;;322.17;306.20;;;28.00;99.90;;;;;;6308260;22;20466;-82
2021/06/18 07:55:24;;;;;;;256.83;242.63;;;28.20;99.90;;;;;;6307455;22;20505;-83
2021/06/18 07:57:53;;;;;;;319.80;300.27;;;28.40;99.90;;;;;;6310168;22;20767;-82
2021/06/18 08:00:22;;;;;;;487.17;459.10;;;28.70;99.90;;;;;;6308752;22;20438;-82
2021/06/18 08:02:49;;;;;;;205.87;194.20;;;29.10;99.90;;;;;;6317712;22;20461;-82
2021/06/18 08:05:17;;;;;;;167.93;157.77;;;29.20;99.90;;;;;;6314999;22;20473;-82
2021/06/18 08:07:47;;;;;;;253.33;240.17;;;29.00;99.90;;;;;;6311091;22;20463;-82
2021/06/18 08:10:16;;;;;;;81.80;75.77;;;28.90;99.90;;;;;;6316824;22;20465;-83
2021/06/18 08:12:45;;;;;;;24.07;11.10;;;28.80;99.90;;;;;;6317986;22;20505;-82
2021/06/18 08:15:15;;;;;;;28.60;14.57;;;28.90;99.90;;;;;;6312913;22;20986;-82
2021/06/18 08:17:42;;;;;;;24.37;14.20;;;28.90;99.90;;;;;;6314296;22;20476;-82
2021/06/18 08:20:11;;;;;;;33.07;29.87;;;28.90;99.90;;;;;;6308417;22;20459;-82
2021/06/18 08:22:38;;;;;;;24.17;14.53;;;29.10;99.90;;;;;;6317352;22;20430;-82
2021/06/18 08:25:06;;;;;;;23.20;12.20;;;29.10;99.90;;;;;;6319490;22;21183;-82
2021/06/18 08:27:33;;;;;;;26.53;14.33;;;29.20;99.90;;;;;;6318613;22;20445;-82
2021/06/18 08:30:01;;;;;;;25.70;15.93;;;29.30;99.90;;;;;;6313013;22;20441;-82
2021/06/18 08:32:29;;;;;;;21.90;11.77;;;29.40;99.90;;;;;;6314523;22;20456;-82
2021/06/18 08:34:56;;;;;;;20.67;11.50;;;29.60;99.90;;;;;;6309016;22;20405;-82
2021/06/18 08:37:23;;;;;;;22.50;15.07;;;29.80;99.90;;;;;;6308994;22;20437;-82
2021/06/18 08:39:50;;;;;;;28.10;12.93;;;30.00;99.90;;;;;;6310547;22;20830;-83
2021/06/18 08:42:18;;;;;;;222.73;209.57;;;30.30;99.90;;;;;;6318837;22;20467;-82
2021/06/18 08:44:45;;;;;;;119.10;110.90;;;30.10;99.90;;;;;;6320504;22;20495;-82
2021/06/18 08:47:12;;;;;;;37.53;32.27;;;30.10;99.90;;;;;;6317314;22;20497;-82
2021/06/18 08:49:41;;;;;;;329.20;310.53;;;30.40;99.90;;;;;;6321062;22;20501;-82
2021/06/18 08:52:08;;;;;;;29.97;23.63;;;30.70;99.90;;;;;;6311236;22;20437;-82
2021/06/18 08:54:45;;;;;;;421.03;399.07;;;31.10;99.90;;;;;;6318903;22;20416;-82
2021/06/18 08:57:14;;;;;;;571.23;525.93;;;31.40;99.90;;;;;;6319207;22;20390;-83
2021/06/18 08:59:42;;;;;;;1999.90;999.90;;;31.80;99.90;;;;;;6319760;22;20481;-82
2021/06/18 09:02:10;;;;;;;1999.90;999.90;;;31.90;99.90;;;;;;6313323;22;20434;-82
2021/06/18 09:05:05;;;;;;;1999.90;999.90;;;32.20;99.90;;;;;;6317189;22;20493;-82
2021/06/18 09:07:49;;;;;;;1999.90;999.90;;;32.60;99.90;;;;;;6321617;22;20473;-82
2021/06/18 09:10:23;;;;;;;368.20;343.50;;;32.90;99.90;;;;;;6321398;22;20430;-83
2021/06/18 09:13:09;;;;;;;59.83;42.03;;;33.10;99.90;;;;;;6322136;22;20511;-82
2021/06/18 09:15:36;;;;;;;36.50;14.27;;;33.10;99.90;;;;;;6321680;22;20413;-83
2021/06/18 09:18:21;;;;;;;20.30;6.50;;;33.10;99.90;;;;;;6321958;22;20441;-82
2021/06/18 09:20:50;;;;;;;20.43;6.60;;;32.60;99.90;;;;;;6320560;22;20420;-82
2021/06/18 09:23:22;;;;;;;17.07;8.20;;;32.30;99.90;;;;;;6321245;22;20394;-82
2021/06/18 09:25:49;;;;;;;13.07;6.87;;;31.90;99.90;;;;;;6320574;22;20517;-83
2021/06/18 09:28:16;;;;;;;13.60;7.30;;;31.50;99.90;;;;;;6322023;22;20413;-82
2021/06/18 09:30:43;;;;;;;16.13;6.80;;;31.20;99.90;;;;;;6321756;22;20446;-82
2021/06/18 09:33:20;;;;;;;15.20;6.80;;;31.00;99.90;;;;;;6312130;22;20424;-81
2021/06/18 09:36:06;;;;;;;15.77;6.57;;;31.00;99.90;;;;;;6314783;22;20394;-82
2021/06/18 09:38:43;;;;;;;11.60;6.40;;;31.10;99.90;;;;;;6312663;22;20400;-82
2021/06/18 09:41:32;;;;;;;12.20;6.80;;;31.20;99.90;;;;;;6314957;22;20781;-82
2021/06/18 09:44:01;;;;;;;15.27;6.10;;;31.30;99.90;;;;;;6313741;22;20937;-82
2021/06/18 09:46:42;;;;;;;14.33;6.00;;;31.50;99.90;;;;;;6320060;22;20405;-82
2021/06/18 09:49:13;;;;;;;14.13;6.20;;;31.80;99.90;;;;;;6323027;22;20437;-82
2021/06/18 09:51:58;;;;;;;11.93;6.87;;;32.00;99.90;;;;;;6320611;22;20430;-82
2021/06/18 09:54:31;;;;;;;12.23;6.63;;;32.30;99.90;;;;;;6323576;22;20406;-82
2021/06/18 09:57:06;;;;;;;13.43;6.60;;;32.20;99.90;;;;;;6324959;22;20636;-83
2021/06/18 09:59:45;;;;;;;13.97;7.07;;;32.20;99.90;;;;;;6324913;22;20425;-82
2021/06/18 10:02:12;;;;;;;10.37;6.63;;;32.10;99.90;;;;;;6330512;22;20413;-82
2021/06/18 10:04:40;;;;;;;12.40;6.43;;;32.10;99.90;;;;;;6333253;22;20441;-82
2021/06/18 10:07:10;;;;;;;13.53;6.77;;;32.00;99.90;;;;;;6326014;22;20402;-83
2021/06/18 10:09:37;;;;;;;11.10;6.77;;;32.00;99.90;;;;;;6320580;22;20445;-83
2021/06/18 10:12:05;;;;;;;12.50;6.27;;;32.10;99.90;;;;;;6320745;22;20787;-83
2021/06/18 10:14:33;;;;;;;9.90;6.33;;;32.30;99.90;;;;;;6317948;22;20425;-83
2021/06/18 10:17:00;;;;;;;13.03;7.03;;;32.50;99.90;;;;;;6320410;22;20798;-83
2021/06/18 10:19:27;;;;;;;16.40;6.60;;;32.30;99.90;;;;;;6318940;22;20406;-84
2021/06/18 10:22:00;;;;;;;9.63;6.43;;;32.10;99.90;;;;;;6320532;22;20453;-83
2021/06/18 10:24:35;;;;;;;13.50;5.63;;;31.90;99.90;;;;;;6321476;22;20478;-83
2021/06/18 10:27:05;;;;;;;11.97;5.80;;;31.70;99.90;;;;;;6321963;22;20883;-83
2021/06/18 10:29:36;;;;;;;13.90;5.90;;;31.80;99.90;;;;;;6320839;22;20990;-83
2021/06/18 10:32:34;;;;;;;10.97;5.87;;;31.80;99.90;;;;;;6319338;22;20434;-83
2021/06/18 10:35:05;;;;;;;12.90;6.30;;;31.90;99.90;;;;;;6316289;22;20394;-83
2021/06/18 10:37:34;;;;;;;10.10;6.33;;;32.20;99.90;;;;;;6319370;22;20394;-82
2021/06/18 10:40:11;;;;;;;10.30;6.50;;;32.50;99.90;;;;;;6322011;22;20433;-83
2021/06/18 10:42:38;;;;;;;13.20;6.27;;;33.00;99.90;;;;;;6320357;22;20460;-83
2021/06/18 10:45:07;;;;;;;13.53;6.67;;;33.40;99.90;;;;;;6321104;22;20414;-82
2021/06/18 10:47:44;;;;;;;15.40;7.20;;;34.00;99.90;;;;;;6320821;22;20438;-83
2021/06/18 10:50:13;;;;;;;12.97;6.23;;;34.70;99.90;;;;;;6320954;22;20430;-82
2021/06/18 10:52:41;;;;;;;11.70;6.17;;;35.00;99.90;;;;;;6320985;22;20430;-82
2021/06/18 10:55:10;;;;;;;14.60;6.73;;;35.10;99.90;;;;;;6318362;22;20401;-83
2021/06/18 10:57:51;;;;;;;10.43;6.20;;;34.70;99.90;;;;;;6319697;22;20406;-83
2021/06/18 11:00:24;;;;;;;13.83;6.03;;;34.60;99.90;;;;;;6318169;22;20409;-83
2021/06/18 11:02:54;;;;;;;13.37;6.00;;;34.50;99.90;;;;;;6318629;22;20436;-82
2021/06/18 11:05:40;;;;;;;14.33;6.00;;;34.10;99.90;;;;;;6317477;22;20411;-82
2021/06/18 11:08:31;;;;;;;16.03;7.03;;;33.70;99.90;;;;;;6321987;22;20420;-82
2021/06/18 11:11:01;;;;;;;14.33;5.93;;;33.40;99.90;;;;;;6289930;22;20458;-83
2021/06/18 11:13:28;;;;;;;10.53;6.10;;;33.40;99.90;;;;;;6319469;22;20406;-83
2021/06/18 11:15:55;;;;;;;19.40;6.40;;;33.30;99.90;;;;;;6315360;22;20406;-82
2021/06/18 11:18:41;;;;;;;10.57;5.50;;;33.10;99.90;;;;;;6318263;22;20805;-82
2021/06/18 11:21:09;;;;;;;13.03;5.47;;;32.80;99.90;;;;;;6321323;22;20429;-83
2021/06/18 11:23:39;;;;;;;12.10;4.20;;;33.20;99.90;;;;;;6319584;22;20424;-84
2021/06/18 11:26:13;;;;;;;11.60;4.87;;;33.60;99.90;;;;;;6319177;22;20402;-83
2021/06/18 11:28:48;;;;;;;9.93;5.27;;;33.90;99.90;;;;;;6320172;22;20396;-83
2021/06/18 11:31:19;;;;;;;8.97;4.40;;;34.70;99.90;;;;;;6319366;22;20452;-82
2021/06/18 11:33:58;;;;;;;11.27;5.30;;;36.00;99.90;;;;;;6315410;22;20421;-82
2021/06/18 11:36:53;;;;;;;9.70;5.03;;;36.40;99.90;;;;;;6319128;22;20453;-83
2021/06/18 11:39:33;;;;;;;11.87;5.77;;;37.00;99.90;;;;;;6320795;22;20390;-83
2021/06/18 11:42:09;;;;;;;9.57;4.13;;;37.50;99.90;;;;;;6319244;22;20429;-83
2021/06/18 11:44:37;;;;;;;9.80;4.83;;;38.80;99.90;;;;;;6316879;22;20405;-83
2021/06/18 11:47:06;;;;;;;9.90;4.60;;;39.50;99.90;;;;;;6320325;22;20493;-82
2021/06/18 11:49:35;;;;;;;9.30;4.97;;;40.70;98.50;;;;;;6321330;22;20491;-82
2021/06/18 11:52:09;;;;;;;13.03;4.90;;;41.60;99.90;;;;;;6321466;22;20432;-82
2021/06/18 11:54:40;;;;;;;10.57;4.40;;;42.90;99.90;;;;;;6321279;22;20390;-82
2021/06/18 11:57:17;;;;;;;7.90;4.10;;;44.20;99.00;;;;;;6318646;22;20397;-82
2021/06/18 11:59:51;;;;;;;10.73;3.90;;;44.70;89.20;;;;;;6318320;22;20397;-81
2021/06/18 12:02:21;;;;;;;8.00;3.97;;;45.00;79.80;;;;;;6321731;22;20452;-81
2021/06/18 12:05:00;;;;;;;10.47;3.57;;;45.70;82.20;;;;;;6319482;22;20469;-82
2021/06/18 12:07:31;;;;;;;6.90;3.60;;;46.30;79.20;;;;;;6319875;22;20409;-82
2021/06/18 12:09:58;;;;;;;7.27;3.70;;;46.60;71.30;;;;;;6320936;22;20450;-82
2021/06/18 12:12:26;;;;;;;9.67;4.17;;;46.60;69.90;;;;;;6319896;22;20441;-83
2021/06/18 12:14:57;;;;;;;9.40;4.23;;;46.80;64.60;;;;;;6320686;22;20470;-82
2021/06/18 12:17:24;;;;;;;7.67;4.07;;;47.20;56.90;;;;;;6320885;22;20398;-82
2021/06/18 12:19:53;;;;;;;6.50;3.30;;;47.70;63.10;;;;;;6321916;22;20406;-82
2021/06/18 12:22:20;;;;;;;10.17;4.30;;;47.00;56.50;;;;;;6321551;22;20445;-84
2021/06/18 12:24:50;;;;;;;8.33;4.20;;;46.10;60.50;;;;;;6322560;22;20413;-83
2021/06/18 12:27:20;;;;;;;7.93;3.97;;;46.20;60.50;;;;;;6321305;22;20432;-80
2021/06/18 12:29:54;;;;;;;7.73;4.17;;;46.50;58.90;;;;;;6318917;22;20455;-83